sensor_id;sensor_type;location;lat;lon;timestamp;pressure;altitude;pressure_sealevel;temperature;humidity
36380;BME280;22411;53.016;18.632;2022-12-18T00:01:48;102192.34;;;-3.98;100.00
36380;BME280;22411;53.016;18.632;2022-12-18T00:04:23;102190.66;;;-3.98;100.00
36380;BME280;22411;53.016;18.632;2022-12-18T00:06:50;102187.19;;;-4.03;100.00
36380;BME280;22411;53.016;18.632;2022-12-18T00:09:16;102194.59;;;-4.12;100.00
36380;BME280;22411;53.016;18.632;2022-12-18T00:11:42;102198.72;;;-4.17;100.00
36380;BME280;22411;53.016;18.632;2022-12-18T00:14:11;102205.44;;;-4.19;100.00
36380;BME280;22411;53.016;18.632;2022-12-18T00:16:38;102206.16;;;-4.26;100.00
36380;BME280;22411;53.016;18.632;2022-12-18T00:19:05;102217.78;;;-4.36;100.00
36380;BME280;22411;53.016;18.632;2022-12-18T00:21:32;102218.56;;;-4.38;100.00
36380;BME280;22411;53.016;18.632;2022-12-18T00:23:59;102221.06;;;-4.40;100.00
36380;BME280;22411;53.016;18.632;2022-12-18T00:26:32;102224.47;;;-4.38;100.00
36380;BME280;22411;53.016;18.632;2022-12-18T00:29:04;102225.13;;;-4.48;100.00
36380;BME280;22411;53.016;18.632;2022-12-18T00:31:32;102225.16;;;-4.47;100.00
36380;BME280;22411;53.016;18.632;2022-12-18T00:33:58;102230.13;;;-4.51;100.00
36380;BME280;22411;53.016;18.632;2022-12-18T00:36:30;102230.88;;;-4.55;100.00
36380;BME280;22411;53.016;18.632;2022-12-18T00:38:57;102230.91;;;-4.54;100.00
36380;BME280;22411;53.016;18.632;2022-12-18T00:41:24;102242.56;;;-4.60;100.00
36380;BME280;22411;53.016;18.632;2022-12-18T00:44:12;102240.16;;;-4.56;100.00
36380;BME280;22411;53.016;18.632;2022-12-18T00:46:40;102245.84;;;-4.64;100.00
36380;BME280;22411;53.016;18.632;2022-12-18T00:49:07;102251.75;;;-4.65;100.00
36380;BME280;22411;53.016;18.632;2022-12-18T00:51:33;102252.56;;;-4.66;100.00
36380;BME280;22411;53.016;18.632;2022-12-18T00:53:59;102257.59;;;-4.68;100.00
36380;BME280;22411;53.016;18.632;2022-12-18T00:56:25;102251.47;;;-4.78;100.00
36380;BME280;22411;53.016;18.632;2022-12-18T00:58:51;102252.19;;;-4.83;100.00
36380;BME280;22411;53.016;18.632;2022-12-18T01:01:18;102250.53;;;-4.83;100.00
36380;BME280;22411;53.016;18.632;2022-12-18T01:03:44;102253.91;;;-4.82;100.00
36380;BME280;22411;53.016;18.632;2022-12-18T01:06:14;102260.53;;;-4.87;100.00
36380;BME280;22411;53.016;18.632;2022-12-18T01:08:40;102269.16;;;-4.79;100.00
36380;BME280;22411;53.016;18.632;2022-12-18T01:11:24;102276.94;;;-4.70;100.00
36380;BME280;22411;53.016;18.632;2022-12-18T01:13:52;102265.09;;;-4.72;100.00
36380;BME280;22411;53.016;18.632;2022-12-18T01:16:18;102273.44;;;-4.75;100.00
36380;BME280;22411;53.016;18.632;2022-12-18T01:18:44;102269.19;;;-4.78;100.00
36380;BME280;22411;53.016;18.632;2022-12-18T01:21:14;102269.09;;;-4.81;100.00
36380;BME280;22411;53.016;18.632;2022-12-18T01:23:40;102270.84;;;-4.80;100.00
36380;BME280;22411;53.016;18.632;2022-12-18T01:26:14;102277.66;;;-4.76;100.00
36380;BME280;22411;53.016;18.632;2022-12-18T01:28:41;102279.31;;;-4.78;100.00
36380;BME280;22411;53.016;18.632;2022-12-18T01:33:43;102275.97;;;-4.75;100.00
36380;BME280;22411;53.016;18.632;2022-12-18T01:36:15;102283.66;;;-4.72;100.00
36380;BME280;22411;53.016;18.632;2022-12-18T01:38:41;102263.19;;;-4.81;100.00
36380;BME280;22411;53.016;18.632;2022-12-18T01:41:08;102276.78;;;-4.78;100.00
36380;BME280;22411;53.016;18.632;2022-12-18T01:43:52;102300.31;;;-4.80;100.00
36380;BME280;22411;53.016;18.632;2022-12-18T01:46:20;102296.09;;;-4.81;100.00
36380;BME280;22411;53.016;18.632;2022-12-18T01:48:50;102306.16;;;-4.84;100.00
36380;BME280;22411;53.016;18.632;2022-12-18T01:51:18;102307.78;;;-4.86;100.00
36380;BME280;22411;53.016;18.632;2022-12-18T01:53:45;102294.34;;;-4.84;100.00
36380;BME280;22411;53.016;18.632;2022-12-18T01:56:15;102297.75;;;-4.83;100.00
36380;BME280;22411;53.016;18.632;2022-12-18T01:59:00;102300.19;;;-4.86;100.00
36380;BME280;22411;53.016;18.632;2022-12-18T02:01:29;102299.47;;;-4.81;100.00
36380;BME280;22411;53.016;18.632;2022-12-18T02:04:21;102302.78;;;-4.83;100.00
36380;BME280;22411;53.016;18.632;2022-12-18T02:06:42;102304.41;;;-4.85;100.00
36380;BME280;22411;53.016;18.632;2022-12-18T02:09:33;102311.25;;;-4.83;100.00
36380;BME280;22411;53.016;18.632;2022-12-18T02:12:21;102315.44;;;-4.83;100.00
36380;BME280;22411;53.016;18.632;2022-12-18T02:15:04;102318.84;;;-4.81;100.00
36380;BME280;22411;53.016;18.632;2022-12-18T02:17:50;102322.19;;;-4.84;100.00
36380;BME280;22411;53.016;18.632;2022-12-18T02:20:24;102323.06;;;-4.82;100.00
36380;BME280;22411;53.016;18.632;2022-12-18T02:28:41;102334.94;;;-4.79;100.00
36380;BME280;22411;53.016;18.632;2022-12-18T02:31:16;102334.84;;;-4.82;100.00
36380;BME280;22411;53.016;18.632;2022-12-18T02:33:53;102343.19;;;-4.86;100.00
36380;BME280;22411;53.016;18.632;2022-12-18T02:36:24;102339.88;;;-4.84;100.00
36380;BME280;22411;53.016;18.632;2022-12-18T02:38:52;102340.66;;;-4.86;100.00
36380;BME280;22411;53.016;18.632;2022-12-18T02:41:19;102340.72;;;-4.85;100.00
36380;BME280;22411;53.016;18.632;2022-12-18T02:43:55;102337.34;;;-4.84;100.00
36380;BME280;22411;53.016;18.632;2022-12-18T02:46:31;102343.97;;;-4.89;100.00
36380;BME280;22411;53.016;18.632;2022-12-18T02:50:05;102344.88;;;-4.87;100.00
36380;BME280;22411;53.016;18.632;2022-12-18T03:00:21;102355.97;;;-4.80;100.00
36380;BME280;22411;53.016;18.632;2022-12-18T03:02:59;102354.34;;;-4.80;100.00
36380;BME280;22411;53.016;18.632;2022-12-18T03:05:41;102355.97;;;-4.80;100.00
36380;BME280;22411;53.016;18.632;2022-12-18T03:10:53;102360.41;;;-4.71;100.00
36380;BME280;22411;53.016;18.632;2022-12-18T03:13:35;102364.75;;;-4.66;100.00
36380;BME280;22411;53.016;18.632;2022-12-18T03:16:03;102361.50;;;-4.62;100.00
36380;BME280;22411;53.016;18.632;2022-12-18T03:18:52;102365.69;;;-4.62;100.00
36380;BME280;22411;53.016;18.632;2022-12-18T03:21:27;102364.75;;;-4.66;100.00
36380;BME280;22411;53.016;18.632;2022-12-18T03:23:54;102366.53;;;-4.63;100.00
36380;BME280;22411;53.016;18.632;2022-12-18T03:26:24;102376.56;;;-4.66;100.00
36380;BME280;22411;53.016;18.632;2022-12-18T03:29:03;102376.44;;;-4.71;100.00
36380;BME280;22411;53.016;18.632;2022-12-18T03:31:32;102375.72;;;-4.67;100.00
36380;BME280;22411;53.016;18.632;2022-12-18T03:34:04;102383.34;;;-4.65;100.00
36380;BME280;22411;53.016;18.632;2022-12-18T03:36:31;102392.63;;;-4.64;100.00
36380;BME280;22411;53.016;18.632;2022-12-18T03:38:57;102397.78;;;-4.61;100.00
36380;BME280;22411;53.016;18.632;2022-12-18T03:41:47;102395.22;;;-4.63;100.00
36380;BME280;22411;53.016;18.632;2022-12-18T03:44:29;102395.16;;;-4.64;100.00
36380;BME280;22411;53.016;18.632;2022-12-18T03:47:14;102403.56;;;-4.65;100.00
36380;BME280;22411;53.016;18.632;2022-12-18T03:49:48;102395.16;;;-4.64;100.00
36380;BME280;22411;53.016;18.632;2022-12-18T03:54:54;102408.59;;;-4.67;100.00
36380;BME280;22411;53.016;18.632;2022-12-18T03:57:25;102416.94;;;-4.71;100.00
36380;BME280;22411;53.016;18.632;2022-12-18T03:59:56;102418.84;;;-4.62;100.00
36380;BME280;22411;53.016;18.632;2022-12-18T04:02:25;102425.72;;;-4.57;100.00
36380;BME280;22411;53.016;18.632;2022-12-18T04:04:53;102428.28;;;-4.55;100.00
36380;BME280;22411;53.016;18.632;2022-12-18T04:07:23;102431.66;;;-4.56;100.00
36380;BME280;22411;53.016;18.632;2022-12-18T04:09:51;102427.25;;;-4.63;100.00
36380;BME280;22411;53.016;18.632;2022-12-18T04:12:19;102429.97;;;-4.56;100.00
36380;BME280;22411;53.016;18.632;2022-12-18T04:14:45;102427.31;;;-4.60;100.00
36380;BME280;22411;53.016;18.632;2022-12-18T04:17:11;102434.03;;;-4.62;100.00
36380;BME280;22411;53.016;18.632;2022-12-18T04:19:37;102433.19;;;-4.63;100.00
36380;BME280;22411;53.016;18.632;2022-12-18T04:22:03;102434.91;;;-4.60;100.00
36380;BME280;22411;53.016;18.632;2022-12-18T04:24:29;102435.72;;;-4.61;100.00
36380;BME280;22411;53.016;18.632;2022-12-18T04:26:55;102434.00;;;-4.64;100.00
36380;BME280;22411;53.016;18.632;2022-12-18T04:29:21;102436.47;;;-4.65;100.00
36380;BME280;22411;53.016;18.632;2022-12-18T04:31:47;102431.75;;;-4.52;100.00
36380;BME280;22411;53.016;18.632;2022-12-18T04:34:13;102445.19;;;-4.54;100.00
36380;BME280;22411;53.016;18.632;2022-12-18T04:36:39;102438.41;;;-4.55;100.00
36380;BME280;22411;53.016;18.632;2022-12-18T04:39:04;102446.84;;;-4.56;100.00
36380;BME280;22411;53.016;18.632;2022-12-18T04:41:31;102443.59;;;-4.51;100.00
36380;BME280;22411;53.016;18.632;2022-12-18T04:43:56;102451.91;;;-4.55;100.00
36380;BME280;22411;53.016;18.632;2022-12-18T04:46:22;102456.13;;;-4.55;100.00
36380;BME280;22411;53.016;18.632;2022-12-18T04:48:48;102451.19;;;-4.51;100.00
36380;BME280;22411;53.016;18.632;2022-12-18T04:51:14;102462.97;;;-4.53;100.00
36380;BME280;22411;53.016;18.632;2022-12-18T04:53:40;102463.00;;;-4.51;100.00
36380;BME280;22411;53.016;18.632;2022-12-18T04:56:09;102457.03;;;-4.53;100.00
36380;BME280;22411;53.016;18.632;2022-12-18T04:58:36;102458.69;;;-4.54;100.00
36380;BME280;22411;53.016;18.632;2022-12-18T05:01:03;102466.25;;;-4.55;100.00
36380;BME280;22411;53.016;18.632;2022-12-18T05:03:29;102456.84;;;-4.61;100.00
36380;BME280;22411;53.016;18.632;2022-12-18T05:05:55;102464.31;;;-4.65;100.00
36380;BME280;22411;53.016;18.632;2022-12-18T05:08:21;102462.44;;;-4.72;100.00
36380;BME280;22411;53.016;18.632;2022-12-18T05:10:47;102476.78;;;-4.73;100.00
36380;BME280;22411;53.016;18.632;2022-12-18T05:13:13;102477.53;;;-4.76;100.00
36380;BME280;22411;53.016;18.632;2022-12-18T05:15:39;102479.31;;;-4.73;100.00
36380;BME280;22411;53.016;18.632;2022-12-18T05:18:05;102479.47;;;-4.67;100.00
36380;BME280;22411;53.016;18.632;2022-12-18T05:20:31;102475.25;;;-4.66;100.00
36380;BME280;22411;53.016;18.632;2022-12-18T05:22:57;102482.81;;;-4.68;100.00
36380;BME280;22411;53.016;18.632;2022-12-18T05:25:23;102487.06;;;-4.67;100.00
36380;BME280;22411;53.016;18.632;2022-12-18T05:27:49;102479.47;;;-4.67;100.00
36380;BME280;22411;53.016;18.632;2022-12-18T05:30:16;102486.94;;;-4.71;100.00
36380;BME280;22411;53.016;18.632;2022-12-18T05:32:42;102498.63;;;-4.75;100.00
36380;BME280;22411;53.016;18.632;2022-12-18T05:35:10;102501.97;;;-4.78;100.00
36380;BME280;22411;53.016;18.632;2022-12-18T05:37:36;102499.41;;;-4.79;100.00
36380;BME280;22411;53.016;18.632;2022-12-18T05:40:03;102506.91;;;-4.81;100.00
36380;BME280;22411;53.016;18.632;2022-12-18T05:42:30;102511.00;;;-4.86;100.00
36380;BME280;22411;53.016;18.632;2022-12-18T05:44:56;102510.16;;;-4.86;100.00
36380;BME280;22411;53.016;18.632;2022-12-18T05:47:22;102510.97;;;-4.87;100.00
36380;BME280;22411;53.016;18.632;2022-12-18T05:49:48;102520.13;;;-4.91;100.00
36380;BME280;22411;53.016;18.632;2022-12-18T05:52:13;102525.25;;;-4.89;100.00
36380;BME280;22411;53.016;18.632;2022-12-18T05:54:40;102526.03;;;-4.92;100.00
36380;BME280;22411;53.016;18.632;2022-12-18T05:57:05;102534.47;;;-4.91;100.00
36380;BME280;22411;53.016;18.632;2022-12-18T05:59:32;102528.56;;;-4.92;100.00
36380;BME280;22411;53.016;18.632;2022-12-18T06:01:57;102526.13;;;-4.89;100.00
36380;BME280;22411;53.016;18.632;2022-12-18T06:04:23;102533.56;;;-4.93;100.00
36380;BME280;22411;53.016;18.632;2022-12-18T06:06:49;102537.84;;;-4.91;100.00
36380;BME280;22411;53.016;18.632;2022-12-18T06:09:15;102544.41;;;-4.97;100.00
36380;BME280;22411;53.016;18.632;2022-12-18T06:11:41;102548.53;;;-5.01;100.00
36380;BME280;22411;53.016;18.632;2022-12-18T06:14:09;102548.63;;;-4.98;100.00
36380;BME280;22411;53.016;18.632;2022-12-18T06:16:35;102553.53;;;-5.03;100.00
36380;BME280;22411;53.016;18.632;2022-12-18T06:19:03;102555.91;;;-5.09;100.00
36380;BME280;22411;53.016;18.632;2022-12-18T06:21:30;102558.41;;;-5.10;100.00
36380;BME280;22411;53.016;18.632;2022-12-18T06:23:56;102561.56;;;-5.17;100.00
36380;BME280;22411;53.016;18.632;2022-12-18T06:26:22;102560.66;;;-5.19;100.00
36380;BME280;22411;53.016;18.632;2022-12-18T06:28:49;102568.22;;;-5.21;100.00
36380;BME280;22411;53.016;18.632;2022-12-18T06:31:15;102569.81;;;-5.23;100.00
36380;BME280;22411;53.016;18.632;2022-12-18T06:33:41;102574.09;;;-5.22;100.00
36380;BME280;22411;53.016;18.632;2022-12-18T06:36:10;102574.03;;;-5.23;100.00
36380;BME280;22411;53.016;18.632;2022-12-18T06:38:39;102578.06;;;-5.29;100.00
36380;BME280;22411;53.016;18.632;2022-12-18T06:41:09;102588.00;;;-5.35;100.00
36380;BME280;22411;53.016;18.632;2022-12-18T06:43:35;102605.41;;;-5.44;100.00
36380;BME280;22411;53.016;18.632;2022-12-18T06:46:02;102606.88;;;-5.52;100.00
36380;BME280;22411;53.016;18.632;2022-12-18T06:48:29;102607.59;;;-5.56;100.00
36380;BME280;22411;53.016;18.632;2022-12-18T06:50:55;102610.81;;;-5.60;100.00
36380;BME280;22411;53.016;18.632;2022-12-18T06:53:22;102623.31;;;-5.65;100.00
36380;BME280;22411;53.016;18.632;2022-12-18T06:55:48;102622.44;;;-5.65;100.00
36380;BME280;22411;53.016;18.632;2022-12-18T06:58:14;102627.56;;;-5.64;100.00
36380;BME280;22411;53.016;18.632;2022-12-18T07:00:40;102625.13;;;-5.61;100.00
36380;BME280;22411;53.016;18.632;2022-12-18T07:03:06;102632.66;;;-5.62;100.00
36380;BME280;22411;53.016;18.632;2022-12-18T07:05:32;102622.59;;;-5.61;100.00
36380;BME280;22411;53.016;18.632;2022-12-18T07:07:58;102626.16;;;-5.54;100.00
36380;BME280;22411;53.016;18.632;2022-12-18T07:10:24;102625.56;;;-5.47;100.00
36380;BME280;22411;53.016;18.632;2022-12-18T07:12:51;102639.94;;;-5.44;100.00
36380;BME280;22411;53.016;18.632;2022-12-18T07:15:17;102645.81;;;-5.45;100.00
36380;BME280;22411;53.016;18.632;2022-12-18T07:17:43;102644.13;;;-5.46;100.00
36380;BME280;22411;53.016;18.632;2022-12-18T07:20:09;102652.50;;;-5.47;100.00
36380;BME280;22411;53.016;18.632;2022-12-18T07:22:36;102655.06;;;-5.46;100.00
36380;BME280;22411;53.016;18.632;2022-12-18T07:25:01;102660.28;;;-5.41;100.00
36380;BME280;22411;53.016;18.632;2022-12-18T07:27:28;102661.28;;;-5.36;100.00
36380;BME280;22411;53.016;18.632;2022-12-18T07:29:53;102658.16;;;-5.28;100.00
36380;BME280;22411;53.016;18.632;2022-12-18T07:32:20;102662.50;;;-5.23;100.00
36380;BME280;22411;53.016;18.632;2022-12-18T07:34:46;102667.72;;;-5.19;100.00
36380;BME280;22411;53.016;18.632;2022-12-18T07:37:12;102677.97;;;-5.14;100.00
36380;BME280;22411;53.016;18.632;2022-12-18T07:39:38;102681.41;;;-5.12;100.00
36380;BME280;22411;53.016;18.632;2022-12-18T07:42:04;102678.16;;;-5.08;100.00
36380;BME280;22411;53.016;18.632;2022-12-18T07:44:49;102672.25;;;-5.09;100.00
36380;BME280;22411;53.016;18.632;2022-12-18T07:47:15;102670.66;;;-5.05;100.00
36380;BME280;22411;53.016;18.632;2022-12-18T07:49:40;102684.34;;;-4.98;100.00
36380;BME280;22411;53.016;18.632;2022-12-18T07:52:06;102690.16;;;-5.01;100.00
36380;BME280;22411;53.016;18.632;2022-12-18T07:54:33;102685.84;;;-5.05;100.00
36380;BME280;22411;53.016;18.632;2022-12-18T07:56:59;102685.00;;;-5.06;100.00
36380;BME280;22411;53.016;18.632;2022-12-18T07:59:25;102696.50;;;-5.15;100.00
36380;BME280;22411;53.016;18.632;2022-12-18T08:01:51;102690.59;;;-5.16;100.00
36380;BME280;22411;53.016;18.632;2022-12-18T08:04:17;102691.44;;;-5.15;100.00
36380;BME280;22411;53.016;18.632;2022-12-18T08:06:43;102700.63;;;-5.17;100.00
36380;BME280;22411;53.016;18.632;2022-12-18T08:09:10;102701.38;;;-5.21;100.00
36380;BME280;22411;53.016;18.632;2022-12-18T08:11:37;102709.03;;;-5.18;100.00
36380;BME280;22411;53.016;18.632;2022-12-18T08:14:03;102719.56;;;-5.32;100.00
36380;BME280;22411;53.016;18.632;2022-12-18T08:16:29;102718.63;;;-5.35;100.00
36380;BME280;22411;53.016;18.632;2022-12-18T08:18:56;102724.22;;;-5.44;100.00
36380;BME280;22411;53.016;18.632;2022-12-18T08:21:27;102726.84;;;-5.41;100.00
36380;BME280;22411;53.016;18.632;2022-12-18T08:23:55;102735.28;;;-5.40;100.00
36380;BME280;22411;53.016;18.632;2022-12-18T08:26:24;102726.97;;;-5.38;100.00
36380;BME280;22411;53.016;18.632;2022-12-18T08:28:50;102729.50;;;-5.38;100.00
36380;BME280;22411;53.016;18.632;2022-12-18T08:31:18;102729.56;;;-5.35;100.00
36380;BME280;22411;53.016;18.632;2022-12-18T08:33:44;102727.81;;;-5.37;100.00
36380;BME280;22411;53.016;18.632;2022-12-18T08:36:13;102733.00;;;-5.33;100.00
36380;BME280;22411;53.016;18.632;2022-12-18T08:38:39;102749.44;;;-5.20;100.00
36380;BME280;22411;53.016;18.632;2022-12-18T08:41:08;102748.00;;;-5.12;100.00
36380;BME280;22411;53.016;18.632;2022-12-18T08:43:35;102753.06;;;-5.12;100.00
36380;BME280;22411;53.016;18.632;2022-12-18T08:46:24;102772.34;;;-5.15;100.00
36380;BME280;22411;53.016;18.632;2022-12-18T08:48:56;102773.09;;;-5.18;100.00
36380;BME280;22411;53.016;18.632;2022-12-18T08:51:22;102769.63;;;-5.47;100.00
36380;BME280;22411;53.016;18.632;2022-12-18T08:53:48;102768.00;;;-5.45;100.00
36380;BME280;22411;53.016;18.632;2022-12-18T08:56:19;102769.00;;;-5.40;100.00
36380;BME280;22411;53.016;18.632;2022-12-18T08:58:45;102775.78;;;-5.39;100.00
36380;BME280;22411;53.016;18.632;2022-12-18T09:01:12;102768.28;;;-5.37;100.00
36380;BME280;22411;53.016;18.632;2022-12-18T09:03:42;102770.84;;;-5.36;100.00
36380;BME280;22411;53.016;18.632;2022-12-18T09:06:14;102759.03;;;-5.37;100.00
36380;BME280;22411;53.016;18.632;2022-12-18T09:08:42;102758.56;;;-5.25;100.00
36380;BME280;22411;53.016;18.632;2022-12-18T09:11:24;102758.50;;;-5.27;100.00
36380;BME280;22411;53.016;18.632;2022-12-18T09:13:52;102759.41;;;-5.24;100.00
36380;BME280;22411;53.016;18.632;2022-12-18T09:16:22;102769.63;;;-5.21;100.00
36380;BME280;22411;53.016;18.632;2022-12-18T09:18:52;102770.56;;;-5.18;100.00
36380;BME280;22411;53.016;18.632;2022-12-18T09:21:28;102767.53;;;-5.08;100.00
36380;BME280;22411;53.016;18.632;2022-12-18T09:23:56;102765.16;;;-5.03;100.00
36380;BME280;22411;53.016;18.632;2022-12-18T09:26:25;102775.38;;;-5.00;100.00
36380;BME280;22411;53.016;18.632;2022-12-18T09:28:57;102767.69;;;-5.03;100.00
36380;BME280;22411;53.016;18.632;2022-12-18T09:31:28;102772.50;;;-5.11;100.00
36380;BME280;22411;53.016;18.632;2022-12-18T09:33:55;102775.25;;;-5.03;100.00
36380;BME280;22411;53.016;18.632;2022-12-18T09:36:26;102773.44;;;-5.07;100.00
36380;BME280;22411;53.016;18.632;2022-12-18T09:38:52;102765.66;;;-5.13;100.00
36380;BME280;22411;53.016;18.632;2022-12-18T09:47:02;102762.84;;;-5.22;100.00
36380;BME280;22411;53.016;18.632;2022-12-18T09:49:30;102764.56;;;-5.21;100.00
36380;BME280;22411;53.016;18.632;2022-12-18T09:52:09;102762.97;;;-5.18;100.00
36380;BME280;22411;53.016;18.632;2022-12-18T09:54:40;102757.06;;;-5.18;100.00
36380;BME280;22411;53.016;18.632;2022-12-18T09:57:29;102757.69;;;-5.26;100.00
36380;BME280;22411;53.016;18.632;2022-12-18T10:00:02;102754.81;;;-5.36;100.00
36380;BME280;22411;53.016;18.632;2022-12-18T10:02:30;102758.28;;;-5.33;100.00
36380;BME280;22411;53.016;18.632;2022-12-18T10:05:20;102750.56;;;-5.37;100.00
36380;BME280;22411;53.016;18.632;2022-12-18T10:07:55;102748.09;;;-5.36;100.00
36380;BME280;22411;53.016;18.632;2022-12-18T10:21:18;102757.94;;;-5.43;100.00
36380;BME280;22411;53.016;18.632;2022-12-18T10:26:42;102786.63;;;-5.43;100.00
36380;BME280;22411;53.016;18.632;2022-12-18T10:29:14;102785.34;;;-5.56;100.00
36380;BME280;22411;53.016;18.632;2022-12-18T10:31:42;102774.13;;;-5.88;100.00
36380;BME280;22411;53.016;18.632;2022-12-18T10:34:12;102774.31;;;-5.82;100.00
36380;BME280;22411;53.016;18.632;2022-12-18T10:36:43;102775.03;;;-5.86;100.00
36380;BME280;22411;53.016;18.632;2022-12-18T10:39:20;102762.25;;;-5.90;100.00
36380;BME280;22411;53.016;18.632;2022-12-18T10:41:48;102766.53;;;-5.88;100.00
36380;BME280;22411;53.016;18.632;2022-12-18T10:44:23;102766.88;;;-5.79;100.00
36380;BME280;22411;53.016;18.632;2022-12-18T10:47:03;102763.78;;;-5.70;100.00
36380;BME280;22411;53.016;18.632;2022-12-18T10:49:35;102769.66;;;-5.71;100.00
36380;BME280;22411;53.016;18.632;2022-12-18T10:52:14;102769.59;;;-5.72;100.00
36380;BME280;22411;53.016;18.632;2022-12-18T10:55:01;102767.28;;;-5.66;100.00
36380;BME280;22411;53.016;18.632;2022-12-18T10:57:35;102764.06;;;-5.62;100.00
36380;BME280;22411;53.016;18.632;2022-12-18T11:00:30;102757.13;;;-5.68;100.00
36380;BME280;22411;53.016;18.632;2022-12-18T11:02:58;102766.66;;;-5.85;100.00
36380;BME280;22411;53.016;18.632;2022-12-18T11:05:33;102767.31;;;-5.90;100.00
36380;BME280;22411;53.016;18.632;2022-12-18T11:08:10;102771.47;;;-5.92;100.00
36380;BME280;22411;53.016;18.632;2022-12-18T11:10:59;102779.97;;;-5.89;100.00
36380;BME280;22411;53.016;18.632;2022-12-18T11:13:29;102786.00;;;-5.85;100.00
36380;BME280;22411;53.016;18.632;2022-12-18T11:15:57;102783.31;;;-5.90;100.00
36380;BME280;22411;53.016;18.632;2022-12-18T11:18:31;102778.28;;;-5.90;100.00
36380;BME280;22411;53.016;18.632;2022-12-18T11:21:09;102783.56;;;-5.82;100.00
36380;BME280;22411;53.016;18.632;2022-12-18T11:23:53;102782.06;;;-5.77;100.00
36380;BME280;22411;53.016;18.632;2022-12-18T11:26:39;102793.16;;;-5.73;100.00
36380;BME280;22411;53.016;18.632;2022-12-18T11:29:22;102797.91;;;-5.81;100.00
36380;BME280;22411;53.016;18.632;2022-12-18T11:31:49;102806.47;;;-5.78;100.00
36380;BME280;22411;53.016;18.632;2022-12-18T11:34:27;102809.47;;;-5.88;100.00
36380;BME280;22411;53.016;18.632;2022-12-18T11:36:54;102816.41;;;-5.82;100.00
36380;BME280;22411;53.016;18.632;2022-12-18T11:39:43;102816.47;;;-5.81;100.00
36380;BME280;22411;53.016;18.632;2022-12-18T11:42:16;102812.34;;;-5.79;100.00
36380;BME280;22411;53.016;18.632;2022-12-18T11:44:53;102818.25;;;-5.78;100.00
36380;BME280;22411;53.016;18.632;2022-12-18T11:47:34;102821.38;;;-5.85;100.00
36380;BME280;22411;53.016;18.632;2022-12-18T11:50:12;102814.78;;;-5.80;100.00
36380;BME280;22411;53.016;18.632;2022-12-18T11:52:40;102811.09;;;-5.90;100.00
36380;BME280;22411;53.016;18.632;2022-12-18T11:55:24;102809.91;;;-6.01;100.00
36380;BME280;22411;53.016;18.632;2022-12-18T11:57:56;102816.75;;;-5.97;100.00
36380;BME280;22411;53.016;18.632;2022-12-18T12:00:26;102817.13;;;-6.10;100.00
36380;BME280;22411;53.016;18.632;2022-12-18T12:14:37;102822.34;;;-6.28;100.00
36380;BME280;22411;53.016;18.632;2022-12-18T12:17:27;102820.53;;;-6.32;100.00
36380;BME280;22411;53.016;18.632;2022-12-18T12:26:18;102816.25;;;-6.33;100.00
36380;BME280;22411;53.016;18.632;2022-12-18T12:31:03;102822.84;;;-6.14;100.00
36380;BME280;22411;53.016;18.632;2022-12-18T12:33:42;102820.22;;;-6.17;100.00
36380;BME280;22411;53.016;18.632;2022-12-18T12:38:47;102830.16;;;-6.22;100.00
36380;BME280;22411;53.016;18.632;2022-12-18T12:41:22;102830.34;;;-6.38;100.00
36380;BME280;22411;53.016;18.632;2022-12-18T12:44:14;102835.06;;;-6.47;100.00
36380;BME280;22411;53.016;18.632;2022-12-18T12:46:44;102840.03;;;-6.49;100.00
36380;BME280;22411;53.016;18.632;2022-12-18T12:49:15;102830.84;;;-6.48;100.00
36380;BME280;22411;53.016;18.632;2022-12-18T12:51:45;102828.59;;;-6.41;100.00
36380;BME280;22411;53.016;18.632;2022-12-18T12:54:17;102834.53;;;-6.39;100.00
36380;BME280;22411;53.016;18.632;2022-12-18T12:57:06;102836.28;;;-6.38;100.00
36380;BME280;22411;53.016;18.632;2022-12-18T13:04:48;102843.69;;;-6.42;100.00
36380;BME280;22411;53.016;18.632;2022-12-18T13:07:20;102855.44;;;-6.43;100.00
36380;BME280;22411;53.016;18.632;2022-12-18T13:12:55;102863.25;;;-6.37;100.00
36380;BME280;22411;53.016;18.632;2022-12-18T13:18:11;102863.31;;;-6.35;100.00
36380;BME280;22411;53.016;18.632;2022-12-18T13:20:44;102868.41;;;-6.54;100.00
36380;BME280;22411;53.016;18.632;2022-12-18T13:23:27;102866.31;;;-6.44;100.00
36380;BME280;22411;53.016;18.632;2022-12-18T13:31:14;102875.00;;;-6.37;100.00
36380;BME280;22411;53.016;18.632;2022-12-18T13:33:45;102879.06;;;-6.41;100.00
36380;BME280;22411;53.016;18.632;2022-12-18T13:39:09;102870.94;;;-6.54;100.00
36380;BME280;22411;53.016;18.632;2022-12-18T13:41:36;102882.59;;;-6.58;100.00
36380;BME280;22411;53.016;18.632;2022-12-18T13:46:49;102882.09;;;-6.49;100.00
36380;BME280;22411;53.016;18.632;2022-12-18T13:49:32;102879.50;;;-6.51;100.00
36380;BME280;22411;53.016;18.632;2022-12-18T13:52:02;102888.94;;;-6.47;100.00
36380;BME280;22411;53.016;18.632;2022-12-18T13:54:40;102884.78;;;-6.45;100.00
36380;BME280;22411;53.016;18.632;2022-12-18T13:57:37;102894.94;;;-6.43;100.00
36380;BME280;22411;53.016;18.632;2022-12-18T14:02:49;102902.63;;;-6.40;100.00
36380;BME280;22411;53.016;18.632;2022-12-18T14:05:31;102896.78;;;-6.39;100.00
36380;BME280;22411;53.016;18.632;2022-12-18T14:08:04;102893.59;;;-6.35;100.00
36380;BME280;22411;53.016;18.632;2022-12-18T14:10:32;102883.72;;;-6.29;100.00
36380;BME280;22411;53.016;18.632;2022-12-18T14:13:03;102883.63;;;-6.32;100.00
36380;BME280;22411;53.016;18.632;2022-12-18T14:15:35;102882.00;;;-6.30;100.00
36380;BME280;22411;53.016;18.632;2022-12-18T14:20:50;102885.66;;;-6.44;100.00